sensor_id;sensor_type;location;lat;lon;timestamp;temperature;humidity
64997;SHT31;51545;51.568;6.998;2022-07-10T00:01:47;14.71;75.91
64997;SHT31;51545;51.568;6.998;2022-07-10T00:04:13;14.61;76.70
64997;SHT31;51545;51.568;6.998;2022-07-10T00:06:38;14.63;76.63
64997;SHT31;51545;51.568;6.998;2022-07-10T00:09:06;14.52;76.89
64997;SHT31;51545;51.568;6.998;2022-07-10T00:11:32;14.52;76.85
64997;SHT31;51545;51.568;6.998;2022-07-10T00:13:58;14.56;77.57
64997;SHT31;51545;51.568;6.998;2022-07-10T00:16:23;14.61;77.13
64997;SHT31;51545;51.568;6.998;2022-07-10T00:18:50;14.66;77.39
64997;SHT31;51545;51.568;6.998;2022-07-10T00:21:16;14.81;76.66
64997;SHT31;51545;51.568;6.998;2022-07-10T00:23:41;14.89;76.86
64997;SHT31;51545;51.568;6.998;2022-07-10T00:26:07;14.78;77.15
64997;SHT31;51545;51.568;6.998;2022-07-10T00:28:34;14.71;76.94
64997;SHT31;51545;51.568;6.998;2022-07-10T00:31:00;14.70;77.29
64997;SHT31;51545;51.568;6.998;2022-07-10T00:33:25;14.67;77.51
64997;SHT31;51545;51.568;6.998;2022-07-10T00:35:53;14.73;77.50
64997;SHT31;51545;51.568;6.998;2022-07-10T00:38:18;14.69;77.32
64997;SHT31;51545;51.568;6.998;2022-07-10T00:40:44;14.71;77.31
64997;SHT31;51545;51.568;6.998;2022-07-10T00:43:09;14.70;77.35
64997;SHT31;51545;51.568;6.998;2022-07-10T00:45:35;14.70;77.38
64997;SHT31;51545;51.568;6.998;2022-07-10T00:48:00;14.70;77.00
64997;SHT31;51545;51.568;6.998;2022-07-10T00:50:26;14.69;77.37
64997;SHT31;51545;51.568;6.998;2022-07-10T00:52:52;14.69;77.95
64997;SHT31;51545;51.568;6.998;2022-07-10T00:55:18;14.66;77.70
64997;SHT31;51545;51.568;6.998;2022-07-10T00:57:44;14.70;77.66
64997;SHT31;51545;51.568;6.998;2022-07-10T01:00:10;14.64;77.66
64997;SHT31;51545;51.568;6.998;2022-07-10T01:02:37;14.67;77.69
64997;SHT31;51545;51.568;6.998;2022-07-10T01:05:06;14.61;77.52
64997;SHT31;51545;51.568;6.998;2022-07-10T01:07:31;14.49;78.21
64997;SHT31;51545;51.568;6.998;2022-07-10T01:09:57;14.46;78.05
64997;SHT31;51545;51.568;6.998;2022-07-10T01:12:24;14.55;78.24
64997;SHT31;51545;51.568;6.998;2022-07-10T01:14:50;14.59;78.37
64997;SHT31;51545;51.568;6.998;2022-07-10T01:17:16;14.61;77.98
64997;SHT31;51545;51.568;6.998;2022-07-10T01:19:42;14.61;78.27
64997;SHT31;51545;51.568;6.998;2022-07-10T01:22:07;14.57;78.13
64997;SHT31;51545;51.568;6.998;2022-07-10T01:24:33;14.53;78.28
64997;SHT31;51545;51.568;6.998;2022-07-10T01:26:59;14.55;78.50
64997;SHT31;51545;51.568;6.998;2022-07-10T01:29:25;14.50;78.41
64997;SHT31;51545;51.568;6.998;2022-07-10T01:31:50;14.39;78.55
64997;SHT31;51545;51.568;6.998;2022-07-10T01:34:16;14.48;78.72
64997;SHT31;51545;51.568;6.998;2022-07-10T01:36:41;14.49;78.47
64997;SHT31;51545;51.568;6.998;2022-07-10T01:39:07;14.44;78.86
64997;SHT31;51545;51.568;6.998;2022-07-10T01:41:33;14.55;78.38
64997;SHT31;51545;51.568;6.998;2022-07-10T01:43:58;14.52;78.45
64997;SHT31;51545;51.568;6.998;2022-07-10T01:46:24;14.57;78.57
64997;SHT31;51545;51.568;6.998;2022-07-10T01:48:50;14.73;78.30
64997;SHT31;51545;51.568;6.998;2022-07-10T01:51:16;14.63;78.39
64997;SHT31;51545;51.568;6.998;2022-07-10T01:53:42;14.57;78.75
64997;SHT31;51545;51.568;6.998;2022-07-10T01:56:08;14.43;78.83
64997;SHT31;51545;51.568;6.998;2022-07-10T01:58:35;14.49;78.88
64997;SHT31;51545;51.568;6.998;2022-07-10T02:01:02;14.46;79.32
64997;SHT31;51545;51.568;6.998;2022-07-10T02:03:28;14.42;79.39
64997;SHT31;51545;51.568;6.998;2022-07-10T02:06:12;14.33;79.47
64997;SHT31;51545;51.568;6.998;2022-07-10T02:08:38;14.14;79.99
64997;SHT31;51545;51.568;6.998;2022-07-10T02:11:03;14.09;80.44
64997;SHT31;51545;51.568;6.998;2022-07-10T02:13:29;14.08;80.57
64997;SHT31;51545;51.568;6.998;2022-07-10T02:15:54;14.14;80.16
64997;SHT31;51545;51.568;6.998;2022-07-10T02:18:21;14.15;80.48
64997;SHT31;51545;51.568;6.998;2022-07-10T02:20:46;14.21;80.66
64997;SHT31;51545;51.568;6.998;2022-07-10T02:23:12;14.11;80.48
64997;SHT31;51545;51.568;6.998;2022-07-10T02:25:38;14.05;80.98
64997;SHT31;51545;51.568;6.998;2022-07-10T02:28:03;14.05;81.03
64997;SHT31;51545;51.568;6.998;2022-07-10T02:30:29;14.11;81.15
64997;SHT31;51545;51.568;6.998;2022-07-10T02:32:54;14.12;80.82
64997;SHT31;51545;51.568;6.998;2022-07-10T02:35:20;14.00;80.97
64997;SHT31;51545;51.568;6.998;2022-07-10T02:37:46;13.97;81.31
64997;SHT31;51545;51.568;6.998;2022-07-10T02:40:11;13.94;81.38
64997;SHT31;51545;51.568;6.998;2022-07-10T02:42:37;13.93;81.52
64997;SHT31;51545;51.568;6.998;2022-07-10T02:45:02;14.00;81.53
64997;SHT31;51545;51.568;6.998;2022-07-10T02:47:28;14.04;81.47
64997;SHT31;51545;51.568;6.998;2022-07-10T02:49:54;14.08;81.20
64997;SHT31;51545;51.568;6.998;2022-07-10T02:52:19;14.08;81.11
64997;SHT31;51545;51.568;6.998;2022-07-10T02:54:45;14.08;81.17
64997;SHT31;51545;51.568;6.998;2022-07-10T02:57:10;14.23;80.81
64997;SHT31;51545;51.568;6.998;2022-07-10T02:59:36;14.22;80.80
64997;SHT31;51545;51.568;6.998;2022-07-10T03:02:01;14.25;80.71
64997;SHT31;51545;51.568;6.998;2022-07-10T03:04:27;14.23;80.59
64997;SHT31;51545;51.568;6.998;2022-07-10T03:06:52;14.16;80.59
64997;SHT31;51545;51.568;6.998;2022-07-10T03:09:18;14.15;80.80
64997;SHT31;51545;51.568;6.998;2022-07-10T03:11:44;14.00;81.00
64997;SHT31;51545;51.568;6.998;2022-07-10T03:14:09;14.01;81.17
64997;SHT31;51545;51.568;6.998;2022-07-10T03:16:35;13.93;81.47
64997;SHT31;51545;51.568;6.998;2022-07-10T03:19:00;13.93;81.39
64997;SHT31;51545;51.568;6.998;2022-07-10T03:21:26;13.93;81.46
64997;SHT31;51545;51.568;6.998;2022-07-10T03:23:51;13.98;81.42
64997;SHT31;51545;51.568;6.998;2022-07-10T03:26:17;13.97;81.46
64997;SHT31;51545;51.568;6.998;2022-07-10T03:28:42;13.93;81.56
64997;SHT31;51545;51.568;6.998;2022-07-10T03:31:08;13.91;81.60
64997;SHT31;51545;51.568;6.998;2022-07-10T03:33:33;13.81;81.78
64997;SHT31;51545;51.568;6.998;2022-07-10T03:35:59;13.74;82.15
64997;SHT31;51545;51.568;6.998;2022-07-10T03:38:26;13.73;82.28
64997;SHT31;51545;51.568;6.998;2022-07-10T03:40:52;13.69;82.47
64997;SHT31;51545;51.568;6.998;2022-07-10T03:43:18;13.63;82.59
64997;SHT31;51545;51.568;6.998;2022-07-10T03:45:43;13.63;82.62
64997;SHT31;51545;51.568;6.998;2022-07-10T03:48:09;13.61;82.76
64997;SHT31;51545;51.568;6.998;2022-07-10T03:50:34;13.60;82.67
64997;SHT31;51545;51.568;6.998;2022-07-10T03:53:00;13.64;82.89
64997;SHT31;51545;51.568;6.998;2022-07-10T03:55:25;13.70;82.78
64997;SHT31;51545;51.568;6.998;2022-07-10T03:57:51;13.71;82.74
64997;SHT31;51545;51.568;6.998;2022-07-10T04:00:23;13.67;82.80
64997;SHT31;51545;51.568;6.998;2022-07-10T04:02:59;13.74;82.65
64997;SHT31;51545;51.568;6.998;2022-07-10T04:05:27;13.83;82.67
64997;SHT31;51545;51.568;6.998;2022-07-10T04:07:53;13.78;82.83
64997;SHT31;51545;51.568;6.998;2022-07-10T04:10:22;13.66;82.89
64997;SHT31;51545;51.568;6.998;2022-07-10T04:12:47;13.63;82.72
64997;SHT31;51545;51.568;6.998;2022-07-10T04:15:13;13.63;83.17
64997;SHT31;51545;51.568;6.998;2022-07-10T04:17:38;13.60;83.08
64997;SHT31;51545;51.568;6.998;2022-07-10T04:20:04;13.71;82.95
64997;SHT31;51545;51.568;6.998;2022-07-10T04:22:30;13.73;82.78
64997;SHT31;51545;51.568;6.998;2022-07-10T04:24:56;13.57;83.03
64997;SHT31;51545;51.568;6.998;2022-07-10T04:27:21;13.66;82.85
64997;SHT31;51545;51.568;6.998;2022-07-10T04:29:47;13.71;82.51
64997;SHT31;51545;51.568;6.998;2022-07-10T04:32:14;13.76;82.32
64997;SHT31;51545;51.568;6.998;2022-07-10T04:34:40;13.80;82.53
64997;SHT31;51545;51.568;6.998;2022-07-10T04:37:06;13.69;82.36
64997;SHT31;51545;51.568;6.998;2022-07-10T04:39:35;13.71;82.28
64997;SHT31;51545;51.568;6.998;2022-07-10T04:42:02;13.77;82.26
64997;SHT31;51545;51.568;6.998;2022-07-10T04:44:28;13.84;82.13
64997;SHT31;51545;51.568;6.998;2022-07-10T04:46:54;13.84;82.31
64997;SHT31;51545;51.568;6.998;2022-07-10T04:49:19;13.91;82.24
64997;SHT31;51545;51.568;6.998;2022-07-10T04:51:45;13.93;82.08
64997;SHT31;51545;51.568;6.998;2022-07-10T04:54:10;13.87;82.25
64997;SHT31;51545;51.568;6.998;2022-07-10T04:56:36;13.91;81.96
64997;SHT31;51545;51.568;6.998;2022-07-10T04:59:01;13.91;82.08
64997;SHT31;51545;51.568;6.998;2022-07-10T05:01:27;14.04;81.73
64997;SHT31;51545;51.568;6.998;2022-07-10T05:03:53;14.08;81.08
64997;SHT31;51545;51.568;6.998;2022-07-10T05:06:18;14.21;81.52
64997;SHT31;51545;51.568;6.998;2022-07-10T05:08:43;14.25;81.43
64997;SHT31;51545;51.568;6.998;2022-07-10T05:11:09;14.36;80.81
64997;SHT31;51545;51.568;6.998;2022-07-10T05:13:36;14.36;80.43
64997;SHT31;51545;51.568;6.998;2022-07-10T05:16:02;14.36;80.73
64997;SHT31;51545;51.568;6.998;2022-07-10T05:18:28;14.34;80.52
64997;SHT31;51545;51.568;6.998;2022-07-10T05:20:53;14.39;80.92
64997;SHT31;51545;51.568;6.998;2022-07-10T05:23:19;14.50;81.03
64997;SHT31;51545;51.568;6.998;2022-07-10T05:25:44;14.50;80.62
64997;SHT31;51545;51.568;6.998;2022-07-10T05:28:10;14.55;80.68
64997;SHT31;51545;51.568;6.998;2022-07-10T05:30:38;14.59;81.19
64997;SHT31;51545;51.568;6.998;2022-07-10T05:33:03;14.76;81.10
64997;SHT31;51545;51.568;6.998;2022-07-10T05:35:29;14.88;80.28
64997;SHT31;51545;51.568;6.998;2022-07-10T05:37:54;14.98;80.20
64997;SHT31;51545;51.568;6.998;2022-07-10T05:40:20;15.06;79.49
64997;SHT31;51545;51.568;6.998;2022-07-10T05:42:46;15.12;79.83
64997;SHT31;51545;51.568;6.998;2022-07-10T05:45:11;15.28;79.48
64997;SHT31;51545;51.568;6.998;2022-07-10T05:47:37;15.38;78.61
64997;SHT31;51545;51.568;6.998;2022-07-10T05:50:03;15.49;78.21
64997;SHT31;51545;51.568;6.998;2022-07-10T05:52:29;15.40;77.75
64997;SHT31;51545;51.568;6.998;2022-07-10T05:54:55;15.40;77.41
64997;SHT31;51545;51.568;6.998;2022-07-10T05:57:21;15.53;77.74
64997;SHT31;51545;51.568;6.998;2022-07-10T05:59:47;15.53;77.62
64997;SHT31;51545;51.568;6.998;2022-07-10T06:02:13;15.38;77.80
64997;SHT31;51545;51.568;6.998;2022-07-10T06:04:38;15.32;78.02
64997;SHT31;51545;51.568;6.998;2022-07-10T06:07:04;15.22;78.00
64997;SHT31;51545;51.568;6.998;2022-07-10T06:09:29;15.14;78.26
64997;SHT31;51545;51.568;6.998;2022-07-10T06:11:55;15.08;78.28
64997;SHT31;51545;51.568;6.998;2022-07-10T06:14:20;15.09;78.55
64997;SHT31;51545;51.568;6.998;2022-07-10T06:16:46;15.08;78.25
64997;SHT31;51545;51.568;6.998;2022-07-10T06:19:11;15.08;78.22
64997;SHT31;51545;51.568;6.998;2022-07-10T06:21:37;14.98;77.88
64997;SHT31;51545;51.568;6.998;2022-07-10T06:24:03;14.94;78.40
64997;SHT31;51545;51.568;6.998;2022-07-10T06:26:28;14.99;78.75
64997;SHT31;51545;51.568;6.998;2022-07-10T06:28:54;14.92;78.11
64997;SHT31;51545;51.568;6.998;2022-07-10T06:31:19;15.08;78.37
64997;SHT31;51545;51.568;6.998;2022-07-10T06:33:45;15.20;78.51
64997;SHT31;51545;51.568;6.998;2022-07-10T06:36:10;15.22;78.48
64997;SHT31;51545;51.568;6.998;2022-07-10T06:38:37;15.36;77.80
64997;SHT31;51545;51.568;6.998;2022-07-10T06:41:03;15.50;77.34
64997;SHT31;51545;51.568;6.998;2022-07-10T06:43:29;15.59;77.02
64997;SHT31;51545;51.568;6.998;2022-07-10T06:45:54;15.69;76.50
64997;SHT31;51545;51.568;6.998;2022-07-10T06:48:20;15.80;76.87
64997;SHT31;51545;51.568;6.998;2022-07-10T06:50:47;15.64;76.65
64997;SHT31;51545;51.568;6.998;2022-07-10T06:53:12;15.69;77.37
64997;SHT31;51545;51.568;6.998;2022-07-10T06:55:38;15.70;76.88
64997;SHT31;51545;51.568;6.998;2022-07-10T06:58:03;15.52;77.25
64997;SHT31;51545;51.568;6.998;2022-07-10T07:00:29;15.53;77.82
64997;SHT31;51545;51.568;6.998;2022-07-10T07:02:54;15.52;77.79
64997;SHT31;51545;51.568;6.998;2022-07-10T07:05:20;15.60;77.31
64997;SHT31;51545;51.568;6.998;2022-07-10T07:07:45;15.66;77.33
64997;SHT31;51545;51.568;6.998;2022-07-10T07:10:11;15.67;77.38
64997;SHT31;51545;51.568;6.998;2022-07-10T07:12:37;15.74;77.06
64997;SHT31;51545;51.568;6.998;2022-07-10T07:15:03;15.67;77.12
64997;SHT31;51545;51.568;6.998;2022-07-10T07:17:29;15.73;76.85
64997;SHT31;51545;51.568;6.998;2022-07-10T07:20:11;15.82;76.27
64997;SHT31;51545;51.568;6.998;2022-07-10T07:22:55;15.46;76.38
64997;SHT31;51545;51.568;6.998;2022-07-10T07:25:36;15.52;77.48
64997;SHT31;51545;51.568;6.998;2022-07-10T07:28:07;15.47;77.11
64997;SHT31;51545;51.568;6.998;2022-07-10T07:30:35;15.49;77.60
64997;SHT31;51545;51.568;6.998;2022-07-10T07:33:00;15.46;77.85
64997;SHT31;51545;51.568;6.998;2022-07-10T07:35:26;15.28;80.01
64997;SHT31;51545;51.568;6.998;2022-07-10T07:37:51;15.22;81.05
64997;SHT31;51545;51.568;6.998;2022-07-10T07:40:20;15.25;81.80
64997;SHT31;51545;51.568;6.998;2022-07-10T07:42:51;15.39;83.31
64997;SHT31;51545;51.568;6.998;2022-07-10T07:45:18;15.49;83.69
64997;SHT31;51545;51.568;6.998;2022-07-10T07:47:48;15.47;83.67
64997;SHT31;51545;51.568;6.998;2022-07-10T07:50:21;15.50;83.23
64997;SHT31;51545;51.568;6.998;2022-07-10T07:52:48;15.75;83.09
64997;SHT31;51545;51.568;6.998;2022-07-10T07:55:15;15.69;82.33
64997;SHT31;51545;51.568;6.998;2022-07-10T07:57:42;15.50;82.63
64997;SHT31;51545;51.568;6.998;2022-07-10T08:00:09;15.32;84.32
64997;SHT31;51545;51.568;6.998;2022-07-10T08:02:36;15.35;83.97
64997;SHT31;51545;51.568;6.998;2022-07-10T08:05:02;15.35;84.02
64997;SHT31;51545;51.568;6.998;2022-07-10T08:07:37;15.19;85.51
64997;SHT31;51545;51.568;6.998;2022-07-10T08:10:05;15.01;86.32
64997;SHT31;51545;51.568;6.998;2022-07-10T08:12:33;14.91;87.02
64997;SHT31;51545;51.568;6.998;2022-07-10T08:14:59;14.89;87.89
64997;SHT31;51545;51.568;6.998;2022-07-10T08:17:25;14.64;88.48
64997;SHT31;51545;51.568;6.998;2022-07-10T08:19:51;14.56;89.31
64997;SHT31;51545;51.568;6.998;2022-07-10T08:22:17;14.53;89.41
64997;SHT31;51545;51.568;6.998;2022-07-10T08:24:43;14.52;89.70
64997;SHT31;51545;51.568;6.998;2022-07-10T08:27:09;14.87;89.12
64997;SHT31;51545;51.568;6.998;2022-07-10T08:29:34;14.95;88.85
64997;SHT31;51545;51.568;6.998;2022-07-10T08:32:00;15.22;88.53
64997;SHT31;51545;51.568;6.998;2022-07-10T08:34:25;15.18;88.32
64997;SHT31;51545;51.568;6.998;2022-07-10T08:36:52;14.99;89.14
64997;SHT31;51545;51.568;6.998;2022-07-10T08:39:18;14.98;89.81
64997;SHT31;51545;51.568;6.998;2022-07-10T08:41:46;15.16;89.74
64997;SHT31;51545;51.568;6.998;2022-07-10T08:44:15;15.35;88.56
64997;SHT31;51545;51.568;6.998;2022-07-10T08:46:42;15.14;89.44
64997;SHT31;51545;51.568;6.998;2022-07-10T08:49:08;15.06;89.97
64997;SHT31;51545;51.568;6.998;2022-07-10T08:51:41;15.28;89.73
64997;SHT31;51545;51.568;6.998;2022-07-10T08:54:13;15.50;89.03
64997;SHT31;51545;51.568;6.998;2022-07-10T08:56:40;15.81;87.86
64997;SHT31;51545;51.568;6.998;2022-07-10T08:59:07;15.97;86.15
64997;SHT31;51545;51.568;6.998;2022-07-10T09:01:33;15.69;86.97
64997;SHT31;51545;51.568;6.998;2022-07-10T09:03:59;15.59;87.48
64997;SHT31;51545;51.568;6.998;2022-07-10T09:06:27;15.71;88.01
64997;SHT31;51545;51.568;6.998;2022-07-10T09:11:24;15.38;87.44
64997;SHT31;51545;51.568;6.998;2022-07-10T09:13:54;15.73;87.77
64997;SHT31;51545;51.568;6.998;2022-07-10T09:16:22;16.11;87.19
64997;SHT31;51545;51.568;6.998;2022-07-10T09:18:48;16.68;85.31
64997;SHT31;51545;51.568;6.998;2022-07-10T09:21:14;16.71;83.65
64997;SHT31;51545;51.568;6.998;2022-07-10T09:23:39;17.04;83.74
64997;SHT31;51545;51.568;6.998;2022-07-10T09:26:05;17.47;82.15
64997;SHT31;51545;51.568;6.998;2022-07-10T09:28:30;17.49;78.26
64997;SHT31;51545;51.568;6.998;2022-07-10T09:30:56;17.23;80.38
64997;SHT31;51545;51.568;6.998;2022-07-10T09:33:25;17.04;81.77
64997;SHT31;51545;51.568;6.998;2022-07-10T09:41:14;16.53;82.83
64997;SHT31;51545;51.568;6.998;2022-07-10T09:43:51;16.22;83.88
64997;SHT31;51545;51.568;6.998;2022-07-10T09:46:24;15.92;84.97
64997;SHT31;51545;51.568;6.998;2022-07-10T09:49:02;15.99;85.52
64997;SHT31;51545;51.568;6.998;2022-07-10T09:51:33;15.91;85.43
64997;SHT31;51545;51.568;6.998;2022-07-10T09:54:01;15.69;86.07
64997;SHT31;51545;51.568;6.998;2022-07-10T09:56:30;15.63;87.04
64997;SHT31;51545;51.568;6.998;2022-07-10T09:59:19;15.84;86.48
64997;SHT31;51545;51.568;6.998;2022-07-10T10:01:46;15.71;86.50
64997;SHT31;51545;51.568;6.998;2022-07-10T10:04:18;15.57;87.37
64997;SHT31;51545;51.568;6.998;2022-07-10T10:06:50;15.66;87.55
64997;SHT31;51545;51.568;6.998;2022-07-10T10:09:41;15.59;87.82
64997;SHT31;51545;51.568;6.998;2022-07-10T10:12:17;15.81;88.58
64997;SHT31;51545;51.568;6.998;2022-07-10T10:14:52;15.78;87.92
64997;SHT31;51545;51.568;6.998;2022-07-10T10:17:19;15.53;88.77
64997;SHT31;51545;51.568;6.998;2022-07-10T10:19:48;15.69;89.21
64997;SHT31;51545;51.568;6.998;2022-07-10T10:22:35;16.02;88.18
64997;SHT31;51545;51.568;6.998;2022-07-10T10:25:02;16.05;87.01
64997;SHT31;51545;51.568;6.998;2022-07-10T10:27:31;16.01;87.68
64997;SHT31;51545;51.568;6.998;2022-07-10T10:29:57;16.28;87.55
64997;SHT31;51545;51.568;6.998;2022-07-10T10:32:23;16.37;87.58
64997;SHT31;51545;51.568;6.998;2022-07-10T10:34:50;16.43;87.12
64997;SHT31;51545;51.568;6.998;2022-07-10T10:40:07;16.49;88.13
64997;SHT31;51545;51.568;6.998;2022-07-10T10:42:37;16.40;89.29
64997;SHT31;51545;51.568;6.998;2022-07-10T10:45:24;16.54;89.23
64997;SHT31;51545;51.568;6.998;2022-07-10T10:53:13;16.56;89.67
64997;SHT31;51545;51.568;6.998;2022-07-10T10:58:25;16.49;91.10
64997;SHT31;51545;51.568;6.998;2022-07-10T11:00:52;16.81;89.93
64997;SHT31;51545;51.568;6.998;2022-07-10T11:03:22;16.92;90.33
64997;SHT31;51545;51.568;6.998;2022-07-10T11:05:51;17.37;89.35
64997;SHT31;51545;51.568;6.998;2022-07-10T11:13:58;18.36;86.19
64997;SHT31;51545;51.568;6.998;2022-07-10T11:16:25;18.74;83.85
64997;SHT31;51545;51.568;6.998;2022-07-10T11:18:54;18.87;83.19
64997;SHT31;51545;51.568;6.998;2022-07-10T11:21:22;18.27;84.23
64997;SHT31;51545;51.568;6.998;2022-07-10T11:29:01;17.82;86.21
64997;SHT31;51545;51.568;6.998;2022-07-10T11:31:30;17.84;86.32
64997;SHT31;51545;51.568;6.998;2022-07-10T11:34:03;17.42;86.87
64997;SHT31;51545;51.568;6.998;2022-07-10T11:36:29;17.77;86.92
64997;SHT31;51545;51.568;6.998;2022-07-10T11:39:03;18.15;85.35
64997;SHT31;51545;51.568;6.998;2022-07-10T11:41:30;18.34;84.83
64997;SHT31;51545;51.568;6.998;2022-07-10T11:43:58;18.59;84.43
64997;SHT31;51545;51.568;6.998;2022-07-10T11:46:26;17.80;84.86
64997;SHT31;51545;51.568;6.998;2022-07-10T11:48:53;17.73;87.20
64997;SHT31;51545;51.568;6.998;2022-07-10T11:51:22;17.74;86.71
64997;SHT31;51545;51.568;6.998;2022-07-10T11:56:28;17.87;86.67
64997;SHT31;51545;51.568;6.998;2022-07-10T11:58:59;18.27;85.16
64997;SHT31;51545;51.568;6.998;2022-07-10T12:01:31;18.37;84.19
64997;SHT31;51545;51.568;6.998;2022-07-10T12:04:04;18.09;85.13
64997;SHT31;51545;51.568;6.998;2022-07-10T12:06:32;18.02;84.86
64997;SHT31;51545;51.568;6.998;2022-07-10T12:09:03;18.22;85.64
64997;SHT31;51545;51.568;6.998;2022-07-10T12:11:31;18.27;83.88
64997;SHT31;51545;51.568;6.998;2022-07-10T12:14:13;18.29;84.18
64997;SHT31;51545;51.568;6.998;2022-07-10T12:16:44;17.84;85.49
64997;SHT31;51545;51.568;6.998;2022-07-10T12:19:16;18.16;86.18
64997;SHT31;51545;51.568;6.998;2022-07-10T12:21:44;18.78;85.88
64997;SHT31;51545;51.568;6.998;2022-07-10T12:24:13;19.92;82.36
64997;SHT31;51545;51.568;6.998;2022-07-10T12:26:42;21.18;79.10
64997;SHT31;51545;51.568;6.998;2022-07-10T12:31:46;20.75;77.67
64997;SHT31;51545;51.568;6.998;2022-07-10T12:34:14;20.46;77.62
64997;SHT31;51545;51.568;6.998;2022-07-10T12:36:41;21.39;75.60
64997;SHT31;51545;51.568;6.998;2022-07-10T12:39:09;22.15;71.71
64997;SHT31;51545;51.568;6.998;2022-07-10T12:41:52;22.68;69.12
64997;SHT31;51545;51.568;6.998;2022-07-10T12:44:40;23.14;66.62
64997;SHT31;51545;51.568;6.998;2022-07-10T12:47:07;23.11;67.11
64997;SHT31;51545;51.568;6.998;2022-07-10T12:52:37;24.05;66.43
64997;SHT31;51545;51.568;6.998;2022-07-10T12:57:48;25.02;61.70
64997;SHT31;51545;51.568;6.998;2022-07-10T13:00:27;24.70;62.11
64997;SHT31;51545;51.568;6.998;2022-07-10T13:02:59;25.11;60.69
64997;SHT31;51545;51.568;6.998;2022-07-10T13:05:36;24.77;60.68
64997;SHT31;51545;51.568;6.998;2022-07-10T13:08:04;23.47;64.68
64997;SHT31;51545;51.568;6.998;2022-07-10T13:10:32;22.44;68.00
64997;SHT31;51545;51.568;6.998;2022-07-10T13:12:58;21.37;68.89
64997;SHT31;51545;51.568;6.998;2022-07-10T13:15:25;21.06;70.03
64997;SHT31;51545;51.568;6.998;2022-07-10T13:17:55;20.55;72.07
64997;SHT31;51545;51.568;6.998;2022-07-10T13:20:21;20.74;72.72
64997;SHT31;51545;51.568;6.998;2022-07-10T13:22:46;20.63;72.90
64997;SHT31;51545;51.568;6.998;2022-07-10T13:25:12;20.67;71.76
64997;SHT31;51545;51.568;6.998;2022-07-10T13:27:37;21.01;71.13
64997;SHT31;51545;51.568;6.998;2022-07-10T13:30:04;21.01;70.45
64997;SHT31;51545;51.568;6.998;2022-07-10T13:32:30;21.15;69.03
64997;SHT31;51545;51.568;6.998;2022-07-10T13:34:55;20.94;69.57
64997;SHT31;51545;51.568;6.998;2022-07-10T13:37:21;20.74;69.92
64997;SHT31;51545;51.568;6.998;2022-07-10T13:39:46;20.55;69.42
64997;SHT31;51545;51.568;6.998;2022-07-10T13:42:12;20.05;70.91
64997;SHT31;51545;51.568;6.998;2022-07-10T13:44:37;20.01;72.11
64997;SHT31;51545;51.568;6.998;2022-07-10T13:47:03;19.93;72.04
64997;SHT31;51545;51.568;6.998;2022-07-10T13:49:29;20.10;72.22
64997;SHT31;51545;51.568;6.998;2022-07-10T13:51:55;20.34;71.96
64997;SHT31;51545;51.568;6.998;2022-07-10T13:54:20;20.60;70.33
64997;SHT31;51545;51.568;6.998;2022-07-10T13:56:46;20.96;70.84
64997;SHT31;51545;51.568;6.998;2022-07-10T13:59:11;21.36;69.28
64997;SHT31;51545;51.568;6.998;2022-07-10T14:01:37;21.68;67.81
64997;SHT31;51545;51.568;6.998;2022-07-10T14:04:03;22.04;67.66
64997;SHT31;51545;51.568;6.998;2022-07-10T14:06:28;22.35;66.37
64997;SHT31;51545;51.568;6.998;2022-07-10T14:08:54;22.15;65.59
64997;SHT31;51545;51.568;6.998;2022-07-10T14:11:19;21.20;68.83
64997;SHT31;51545;51.568;6.998;2022-07-10T14:13:45;20.53;71.31
64997;SHT31;51545;51.568;6.998;2022-07-10T14:16:11;19.89;74.14
64997;SHT31;51545;51.568;6.998;2022-07-10T14:18:36;19.19;76.73
64997;SHT31;51545;51.568;6.998;2022-07-10T14:21:10;19.15;77.04
64997;SHT31;51545;51.568;6.998;2022-07-10T14:23:38;18.94;77.79
64997;SHT31;51545;51.568;6.998;2022-07-10T14:26:07;18.95;78.10
64997;SHT31;51545;51.568;6.998;2022-07-10T14:28:33;19.19;77.75
64997;SHT31;51545;51.568;6.998;2022-07-10T14:31:00;19.42;76.42
64997;SHT31;51545;51.568;6.998;2022-07-10T14:33:28;19.44;76.01
64997;SHT31;51545;51.568;6.998;2022-07-10T14:35:57;19.60;75.42
64997;SHT31;51545;51.568;6.998;2022-07-10T14:38:23;19.92;74.50
64997;SHT31;51545;51.568;6.998;2022-07-10T14:40:49;20.01;74.27
64997;SHT31;51545;51.568;6.998;2022-07-10T14:43:17;20.22;73.88
64997;SHT31;51545;51.568;6.998;2022-07-10T14:45:43;20.20;73.46
64997;SHT31;51545;51.568;6.998;2022-07-10T14:48:08;20.05;73.32
64997;SHT31;51545;51.568;6.998;2022-07-10T14:50:34;19.83;75.18
64997;SHT31;51545;51.568;6.998;2022-07-10T14:52:59;19.29;76.25
64997;SHT31;51545;51.568;6.998;2022-07-10T14:55:25;19.16;77.10
64997;SHT31;51545;51.568;6.998;2022-07-10T14:57:50;19.15;77.33
64997;SHT31;51545;51.568;6.998;2022-07-10T15:00:16;19.06;77.32
64997;SHT31;51545;51.568;6.998;2022-07-10T15:02:43;19.20;76.56
64997;SHT31;51545;51.568;6.998;2022-07-10T15:05:09;19.50;76.12
64997;SHT31;51545;51.568;6.998;2022-07-10T15:07:34;19.99;76.21
64997;SHT31;51545;51.568;6.998;2022-07-10T15:10:00;20.32;73.71
64997;SHT31;51545;51.568;6.998;2022-07-10T15:12:25;20.26;73.30
64997;SHT31;51545;51.568;6.998;2022-07-10T15:14:51;20.09;72.03
64997;SHT31;51545;51.568;6.998;2022-07-10T15:17:16;20.19;72.19
64997;SHT31;51545;51.568;6.998;2022-07-10T15:19:43;20.23;71.60
64997;SHT31;51545;51.568;6.998;2022-07-10T15:22:08;20.33;71.40
64997;SHT31;51545;51.568;6.998;2022-07-10T15:24:33;20.77;70.71
64997;SHT31;51545;51.568;6.998;2022-07-10T15:26:59;20.60;71.32
64997;SHT31;51545;51.568;6.998;2022-07-10T15:29:24;20.65;70.46
64997;SHT31;51545;51.568;6.998;2022-07-10T15:31:53;20.27;71.02
64997;SHT31;51545;51.568;6.998;2022-07-10T15:34:19;20.06;72.17
64997;SHT31;51545;51.568;6.998;2022-07-10T15:36:44;20.33;71.82
64997;SHT31;51545;51.568;6.998;2022-07-10T15:39:14;20.39;70.25
64997;SHT31;51545;51.568;6.998;2022-07-10T15:41:39;20.51;70.24
64997;SHT31;51545;51.568;6.998;2022-07-10T15:44:11;20.54;69.70
64997;SHT31;51545;51.568;6.998;2022-07-10T15:46:36;20.58;70.68
64997;SHT31;51545;51.568;6.998;2022-07-10T15:49:02;20.27;70.50
64997;SHT31;51545;51.568;6.998;2022-07-10T15:51:29;20.04;71.24
64997;SHT31;51545;51.568;6.998;2022-07-10T15:53:55;20.18;71.60
64997;SHT31;51545;51.568;6.998;2022-07-10T15:56:22;20.32;70.46
64997;SHT31;51545;51.568;6.998;2022-07-10T15:58:47;20.37;70.94
64997;SHT31;51545;51.568;6.998;2022-07-10T16:01:13;20.33;71.50
64997;SHT31;51545;51.568;6.998;2022-07-10T16:03:40;20.26;71.15
64997;SHT31;51545;51.568;6.998;2022-07-10T16:06:09;20.40;70.13
64997;SHT31;51545;51.568;6.998;2022-07-10T16:08:35;20.36;70.68
64997;SHT31;51545;51.568;6.998;2022-07-10T16:11:01;20.51;69.92